createdAt,value
2023-01-27T00:00:53.330Z,4.44
2023-01-27T00:03:22.702Z,4.25
2023-01-27T00:05:50.668Z,4.30
2023-01-27T00:08:18.766Z,4.32
2023-01-27T00:10:46.662Z,4.21
2023-01-27T00:13:31.943Z,4.18
2023-01-27T00:15:59.809Z,4.33
2023-01-27T00:18:28.761Z,4.25
2023-01-27T00:21:14.083Z,4.23
2023-01-27T00:23:59.242Z,4.03
2023-01-27T00:26:27.198Z,4.08
2023-01-27T00:28:54.835Z,4.05
2023-01-27T00:31:40.256Z,3.95
2023-01-27T00:34:10.877Z,3.82
2023-01-27T00:36:40.159Z,3.92
2023-01-27T00:39:08.736Z,3.94
2023-01-27T00:41:36.764Z,3.99
2023-01-27T00:44:06.081Z,3.82
2023-01-27T00:46:34.810Z,3.95
2023-01-27T00:49:02.701Z,3.84
2023-01-27T00:51:31.803Z,3.87
2023-01-27T00:53:59.781Z,3.82
2023-01-27T00:56:28.229Z,3.90
2023-01-27T00:58:56.149Z,3.91
2023-01-27T01:01:23.855Z,3.89
2023-01-27T01:03:51.728Z,3.78
2023-01-27T01:06:20.826Z,3.91
2023-01-27T01:08:51.340Z,3.86
2023-01-27T01:11:20.457Z,3.81
2023-01-27T01:13:48.536Z,3.92
2023-01-27T01:16:19.663Z,3.81
2023-01-27T01:18:47.482Z,3.73
2023-01-27T01:21:15.719Z,3.82
2023-01-27T01:23:45.866Z,3.90
2023-01-27T01:26:16.844Z,3.84
2023-01-27T01:28:45.309Z,3.86
2023-01-27T01:31:14.637Z,3.95
2023-01-27T01:33:42.383Z,3.80
2023-01-27T01:36:11.886Z,3.80
2023-01-27T01:38:39.721Z,3.79
2023-01-27T01:41:08.937Z,3.82
2023-01-27T01:43:38.131Z,3.84
2023-01-27T01:46:08.095Z,3.97
2023-01-27T01:48:37.626Z,3.89
2023-01-27T01:51:10.765Z,3.94
2023-01-27T01:53:42.139Z,3.74
2023-01-27T01:56:14.588Z,3.95
2023-01-27T01:58:45.080Z,3.91
2023-01-27T02:01:14.554Z,3.80
2023-01-27T02:03:44.171Z,3.81
2023-01-27T02:06:12.139Z,3.88
2023-01-27T02:08:41.560Z,3.86
2023-01-27T02:11:09.929Z,3.81
2023-01-27T02:13:38.032Z,3.95
2023-01-27T02:16:08.301Z,3.90
2023-01-27T02:18:35.983Z,3.85
2023-01-27T02:21:03.894Z,3.87
2023-01-27T02:23:40.164Z,3.93
2023-01-27T02:26:12.352Z,3.97
2023-01-27T02:28:39.972Z,3.94
2023-01-27T02:31:07.623Z,3.90
2023-01-27T02:33:35.307Z,3.97
2023-01-27T02:36:05.557Z,3.91
2023-01-27T02:38:35.555Z,3.96
2023-01-27T02:41:08.158Z,3.92
2023-01-27T02:43:37.282Z,4.04
2023-01-27T02:46:05.083Z,4.02
2023-01-27T02:48:32.891Z,3.97
2023-01-27T02:51:00.768Z,4.06
2023-01-27T02:53:28.569Z,3.91
2023-01-27T02:55:56.125Z,3.96
2023-01-27T02:58:23.775Z,4.06
2023-01-27T03:00:52.748Z,3.96
2023-01-27T03:03:20.346Z,4.05
2023-01-27T03:05:48.100Z,4.09
2023-01-27T03:08:16.005Z,3.99
2023-01-27T03:10:43.619Z,4.07
2023-01-27T03:13:11.244Z,4.09
2023-01-27T03:15:56.343Z,4.03
2023-01-27T03:18:25.331Z,4.14
2023-01-27T03:20:52.915Z,4.22
2023-01-27T03:23:20.855Z,4.09
2023-01-27T03:25:49.781Z,4.19
2023-01-27T03:28:17.485Z,4.07
2023-01-27T03:30:45.161Z,4.17
2023-01-27T03:33:12.969Z,4.12
2023-01-27T03:35:48.250Z,4.09
2023-01-27T03:38:34.573Z,4.14
2023-01-27T03:41:22.263Z,4.17
2023-01-27T03:44:07.399Z,4.12
2023-01-27T03:46:35.006Z,4.02
2023-01-27T03:49:02.608Z,4.15
2023-01-27T03:51:31.841Z,4.12
2023-01-27T03:54:01.094Z,4.15
2023-01-27T03:56:28.774Z,4.18
2023-01-27T03:58:56.385Z,4.14
2023-01-27T04:01:25.204Z,4.18
2023-01-27T04:04:10.740Z,4.12
2023-01-27T04:06:54.387Z,4.18
2023-01-27T04:09:24.175Z,4.16
2023-01-27T04:11:59.138Z,4.13
2023-01-27T04:14:29.445Z,4.15
2023-01-27T04:16:58.824Z,4.12
2023-01-27T04:19:26.865Z,4.14
2023-01-27T04:21:56.677Z,4.22
2023-01-27T04:24:24.508Z,4.27
2023-01-27T04:26:55.520Z,4.19
2023-01-27T04:29:24.428Z,4.25
2023-01-27T04:31:52.810Z,4.14
2023-01-27T04:34:21.104Z,4.17
2023-01-27T04:36:48.958Z,4.16
2023-01-27T04:39:18.720Z,4.11
2023-01-27T04:41:47.032Z,4.16
2023-01-27T04:44:14.630Z,4.17
2023-01-27T04:46:42.398Z,4.15
2023-01-27T04:49:10.275Z,4.24
2023-01-27T04:51:37.996Z,4.24
2023-01-27T04:54:06.016Z,4.21
2023-01-27T04:56:36.926Z,4.20
2023-01-27T04:59:05.923Z,4.22
2023-01-27T05:01:33.684Z,4.21
2023-01-27T05:04:01.282Z,4.15
2023-01-27T05:06:29.336Z,4.10
2023-01-27T05:08:57.505Z,4.11
2023-01-27T05:11:25.058Z,4.17
2023-01-27T05:13:54.221Z,4.21
2023-01-27T05:16:24.449Z,4.18
2023-01-27T05:18:53.830Z,4.11
2023-01-27T05:21:23.520Z,4.23
2023-01-27T05:23:51.464Z,4.24
2023-01-27T05:26:21.411Z,4.19
2023-01-27T05:28:49.998Z,4.24
2023-01-27T05:31:20.574Z,4.09
2023-01-27T05:33:49.671Z,4.24
2023-01-27T05:36:19.468Z,4.26
2023-01-27T05:38:47.594Z,4.19
2023-01-27T05:41:16.425Z,4.24
2023-01-27T05:43:45.976Z,4.25
2023-01-27T05:46:16.311Z,4.22
2023-01-27T05:48:46.813Z,4.18
2023-01-27T05:51:15.740Z,4.17
2023-01-27T05:53:43.742Z,4.29
2023-01-27T05:56:12.350Z,4.34
2023-01-27T05:58:40.779Z,4.31
2023-01-27T06:01:09.388Z,4.27
2023-01-27T06:03:37.551Z,4.47
2023-01-27T06:06:08.087Z,4.27
2023-01-27T06:08:36.587Z,4.34
2023-01-27T06:11:04.634Z,4.34
2023-01-27T06:13:35.640Z,4.45
2023-01-27T06:16:03.761Z,4.28
2023-01-27T06:18:31.415Z,4.42
2023-01-27T06:20:59.784Z,4.44
2023-01-27T06:23:29.322Z,4.40
2023-01-27T06:25:57.560Z,4.40
2023-01-27T06:28:29.733Z,4.37
2023-01-27T06:30:58.221Z,4.55
2023-01-27T06:33:25.836Z,4.46
2023-01-27T06:35:53.548Z,4.47
2023-01-27T06:38:21.280Z,4.48
2023-01-27T06:40:50.508Z,4.39
2023-01-27T06:43:18.290Z,4.47
2023-01-27T06:45:46.198Z,4.46
2023-01-27T06:48:13.915Z,4.56
2023-01-27T06:50:41.519Z,4.46
2023-01-27T06:53:09.377Z,4.32
2023-01-27T06:55:41.366Z,4.41
2023-01-27T06:58:11.023Z,4.44
2023-01-27T07:00:39.335Z,4.41
2023-01-27T07:03:07.625Z,4.43
2023-01-27T07:05:38.299Z,4.45
2023-01-27T07:08:06.587Z,4.40
2023-01-27T07:10:34.364Z,4.42
2023-01-27T07:13:06.274Z,4.44
2023-01-27T07:15:35.968Z,4.43
2023-01-27T07:18:04.259Z,4.50
2023-01-27T07:20:32.345Z,4.49
2023-01-27T07:23:00.181Z,4.49
2023-01-27T07:25:27.916Z,4.47
2023-01-27T07:28:03.364Z,4.44
2023-01-27T07:30:31.591Z,4.50
2023-01-27T07:33:06.187Z,4.54
2023-01-27T07:35:34.117Z,4.45
2023-01-27T07:38:01.949Z,4.53
2023-01-27T07:40:29.750Z,4.57
2023-01-27T07:42:59.314Z,4.55
2023-01-27T07:45:26.965Z,4.58
2023-01-27T07:47:54.548Z,4.53
2023-01-27T07:50:23.611Z,4.60
2023-01-27T07:52:51.180Z,4.57
2023-01-27T07:55:18.715Z,4.65
2023-01-27T07:57:46.251Z,4.67
2023-01-27T08:00:15.786Z,4.60
2023-01-27T08:02:43.427Z,4.73
2023-01-27T08:05:10.968Z,4.63
2023-01-27T08:07:40.229Z,4.67
2023-01-27T08:10:08.547Z,4.62
2023-01-27T08:12:36.227Z,4.65
2023-01-27T08:15:03.932Z,4.78
2023-01-27T08:17:31.669Z,4.80
2023-01-27T08:19:59.526Z,4.79
2023-01-27T08:22:29.012Z,4.97
2023-01-27T08:24:58.133Z,4.82
2023-01-27T08:27:25.702Z,4.75
2023-01-27T08:29:53.663Z,4.86
2023-01-27T08:32:21.360Z,4.83
2023-01-27T08:34:48.920Z,4.93
2023-01-27T08:37:16.460Z,4.95
2023-01-27T08:39:44.426Z,4.87
2023-01-27T08:42:14.197Z,4.88
2023-01-27T08:44:41.951Z,4.82
2023-01-27T08:47:09.646Z,4.70
2023-01-27T08:49:37.250Z,4.74
2023-01-27T08:52:05.183Z,4.80
2023-01-27T08:54:32.898Z,4.90
2023-01-27T08:57:00.603Z,4.81
2023-01-27T08:59:29.538Z,4.83
2023-01-27T09:01:57.427Z,4.76
2023-01-27T09:04:25.006Z,4.86
2023-01-27T09:06:54.095Z,4.88
2023-01-27T09:09:21.605Z,4.94
2023-01-27T09:11:49.521Z,4.95
2023-01-27T09:14:17.207Z,4.89
2023-01-27T09:16:46.623Z,5.03
2023-01-27T09:19:14.083Z,4.95
2023-01-27T09:21:41.797Z,4.93
2023-01-27T09:24:09.465Z,5.00
2023-01-27T09:26:37.146Z,4.91
2023-01-27T09:29:04.651Z,4.90
2023-01-27T09:31:32.545Z,5.02
2023-01-27T09:36:49.605Z,4.96
2023-01-27T09:39:19.879Z,5.08
2023-01-27T09:42:06.509Z,4.97
2023-01-27T09:48:36.164Z,5.05
2023-01-27T09:51:09.036Z,5.15
2023-01-27T09:53:55.556Z,4.96
2023-01-27T09:56:40.398Z,5.23
2023-01-27T09:59:21.993Z,5.24
2023-01-27T10:01:57.981Z,5.51
2023-01-27T10:04:58.088Z,5.70
2023-01-27T10:07:48.979Z,5.74
2023-01-27T10:10:29.135Z,5.56
2023-01-27T10:13:08.214Z,5.16
2023-01-27T10:15:45.452Z,5.12
2023-01-27T10:18:27.016Z,5.32
2023-01-27T10:21:01.465Z,5.36
2023-01-27T10:23:36.222Z,5.39
2023-01-27T10:26:15.141Z,5.44
2023-01-27T10:28:47.912Z,5.55
2023-01-27T10:31:19.246Z,5.54
2023-01-27T10:33:52.021Z,5.73
2023-01-27T10:36:27.095Z,5.77
2023-01-27T10:39:06.582Z,5.87
2023-01-27T10:41:43.863Z,5.60
2023-01-27T10:44:25.345Z,5.81
2023-01-27T10:46:59.796Z,5.75
2023-01-27T10:49:30.660Z,5.82
2023-01-27T10:52:01.611Z,5.97
2023-01-27T10:54:33.391Z,5.73
2023-01-27T10:57:05.950Z,5.62
2023-01-27T10:59:40.093Z,5.85
2023-01-27T11:02:15.448Z,5.76
2023-01-27T11:04:44.997Z,5.69
2023-01-27T11:07:17.718Z,5.50
2023-01-27T11:09:49.781Z,5.60
2023-01-27T11:12:21.563Z,5.63
2023-01-27T11:14:50.626Z,5.66
2023-01-27T11:17:23.163Z,5.72
2023-01-27T11:19:57.963Z,5.61
2023-01-27T11:22:29.761Z,5.62
2023-01-27T11:25:03.866Z,5.74
2023-01-27T11:27:48.074Z,5.84
2023-01-27T11:30:18.940Z,5.86
2023-01-27T11:32:53.893Z,5.75
2023-01-27T11:35:23.401Z,5.64
2023-01-27T11:37:53.681Z,5.53
2023-01-27T11:40:27.136Z,5.38
2023-01-27T11:42:57.833Z,5.33
2023-01-27T11:45:26.053Z,5.64
2023-01-27T11:47:56.897Z,5.60
2023-01-27T11:50:25.002Z,5.72
2023-01-27T11:52:56.350Z,5.63
2023-01-27T11:55:27.694Z,5.68
2023-01-27T11:58:03.139Z,5.45
2023-01-27T12:00:34.650Z,5.56
2023-01-27T12:03:06.523Z,5.61
2023-01-27T12:05:36.036Z,5.46
2023-01-27T12:08:05.386Z,5.54
2023-01-27T12:10:34.703Z,5.40
2023-01-27T12:13:10.018Z,5.32
2023-01-27T12:15:38.628Z,5.41
2023-01-27T12:18:13.785Z,5.33
2023-01-27T12:20:43.236Z,5.30
2023-01-27T12:23:23.482Z,5.26
2023-01-27T12:25:54.727Z,5.32
2023-01-27T12:28:29.989Z,5.48
2023-01-27T12:31:05.185Z,5.56
2023-01-27T12:33:33.723Z,5.68
2023-01-27T12:36:02.745Z,5.62
2023-01-27T12:38:35.307Z,5.86
2023-01-27T12:41:04.871Z,5.81
2023-01-27T12:43:51.219Z,5.89
2023-01-27T12:46:23.696Z,5.77
2023-01-27T12:48:52.986Z,5.76
2023-01-27T12:51:22.650Z,5.97
2023-01-27T12:53:51.269Z,5.73
2023-01-27T12:56:20.708Z,5.93
2023-01-27T12:58:57.727Z,5.94
2023-01-27T13:01:28.595Z,5.87
2023-01-27T13:03:58.512Z,5.71
2023-01-27T13:06:32.494Z,5.80
2023-01-27T13:09:01.063Z,5.76
2023-01-27T13:11:35.437Z,5.64
2023-01-27T13:14:04.460Z,5.59
2023-01-27T13:16:32.084Z,5.61
2023-01-27T13:19:01.314Z,5.76
2023-01-27T13:21:32.473Z,5.95
2023-01-27T13:24:00.542Z,6.02
2023-01-27T13:26:30.444Z,5.70
2023-01-27T13:29:00.910Z,5.88
2023-01-27T13:31:42.928Z,5.89
2023-01-27T13:34:17.223Z,6.11
2023-01-27T13:36:48.251Z,5.90
2023-01-27T13:39:19.552Z,6.05
2023-01-27T13:41:52.713Z,5.77
2023-01-27T13:44:38.507Z,5.73
2023-01-27T13:47:12.833Z,5.71
2023-01-27T13:49:43.580Z,5.87
2023-01-27T13:52:12.399Z,5.90
2023-01-27T13:54:40.043Z,5.90
2023-01-27T13:57:26.971Z,5.89
2023-01-27T14:00:04.722Z,5.71
2023-01-27T14:02:44.360Z,5.54
2023-01-27T14:05:38.229Z,5.53
2023-01-27T14:08:21.899Z,5.40
2023-01-27T14:11:00.231Z,5.29
2023-01-27T14:13:36.805Z,5.33
2023-01-27T14:16:10.356Z,5.54
2023-01-27T14:18:42.998Z,5.48
2023-01-27T14:21:17.546Z,5.48
2023-01-27T14:23:53.318Z,5.42
2023-01-27T14:26:29.802Z,5.43
2023-01-27T14:29:05.107Z,5.32
2023-01-27T14:31:43.101Z,5.34
2023-01-27T14:34:32.002Z,5.20
2023-01-27T14:37:07.415Z,5.46
2023-01-27T14:39:40.997Z,5.20
2023-01-27T14:42:12.349Z,5.52
2023-01-27T14:45:01.185Z,5.45
2023-01-27T14:47:35.458Z,5.43
2023-01-27T14:50:14.403Z,5.42
2023-01-27T14:52:46.406Z,5.30
2023-01-27T14:55:36.572Z,5.27
2023-01-27T14:58:14.873Z,5.29
2023-01-27T15:00:48.156Z,5.20
2023-01-27T15:03:33.073Z,5.22
2023-01-27T15:06:05.800Z,5.11
2023-01-27T15:08:36.679Z,5.14
2023-01-27T15:11:19.588Z,4.97
2023-01-27T15:13:56.730Z,4.98
2023-01-27T15:16:35.116Z,4.82
2023-01-27T15:19:25.818Z,4.90
2023-01-27T15:22:21.769Z,4.90
2023-01-27T15:24:58.021Z,4.95
2023-01-27T15:27:26.057Z,4.78
2023-01-27T15:29:53.847Z,4.65
2023-01-27T15:32:29.331Z,4.62
2023-01-27T15:35:28.388Z,4.64
2023-01-27T15:38:00.528Z,4.64
2023-01-27T15:40:28.507Z,4.76
2023-01-27T15:43:05.712Z,4.83
2023-01-27T15:45:35.272Z,4.74
2023-01-27T15:48:06.743Z,4.70
2023-01-27T15:50:36.348Z,4.67
2023-01-27T15:53:12.269Z,4.54
2023-01-27T15:55:49.049Z,4.61
2023-01-27T15:58:24.837Z,4.70
2023-01-27T16:00:53.973Z,4.71
2023-01-27T16:03:25.499Z,4.58
2023-01-27T16:05:57.129Z,4.52
2023-01-27T16:08:26.645Z,4.54
2023-01-27T16:11:23.757Z,4.56
2023-01-27T16:13:53.121Z,4.56
2023-01-27T16:16:32.125Z,4.60
2023-01-27T16:19:15.787Z,4.59
2023-01-27T16:21:49.630Z,4.54
2023-01-27T16:24:24.256Z,4.52
2023-01-27T16:26:56.422Z,4.61
2023-01-27T16:29:35.318Z,4.53
2023-01-27T16:32:05.923Z,4.54
2023-01-27T16:34:36.598Z,4.46
2023-01-27T16:37:14.330Z,4.55
2023-01-27T16:39:48.118Z,4.52
2023-01-27T16:42:16.682Z,4.52
2023-01-27T16:44:47.240Z,4.67
2023-01-27T16:47:25.358Z,4.61
2023-01-27T16:49:56.030Z,4.59
2023-01-27T16:52:40.686Z,4.53
2023-01-27T16:55:19.894Z,4.55
2023-01-27T16:57:47.401Z,4.50
2023-01-27T17:00:20.704Z,4.40
2023-01-27T17:02:48.649Z,4.52
2023-01-27T17:05:18.151Z,4.49
2023-01-27T17:08:02.666Z,4.52
2023-01-27T17:10:35.124Z,4.52
2023-01-27T17:13:03.179Z,4.52
2023-01-27T17:15:35.749Z,4.62
2023-01-27T17:18:05.573Z,4.55
2023-01-27T17:20:35.017Z,4.47
2023-01-27T17:23:05.289Z,4.45
2023-01-27T17:25:35.707Z,4.52
2023-01-27T17:28:06.123Z,4.54
2023-01-27T17:30:35.161Z,4.47
2023-01-27T17:33:03.398Z,4.38
2023-01-27T17:35:33.567Z,4.44
2023-01-27T17:38:13.869Z,4.42
2023-01-27T17:40:44.331Z,4.44
2023-01-27T17:43:24.774Z,4.40
2023-01-27T17:46:09.210Z,4.41
2023-01-27T17:48:40.537Z,4.52
2023-01-27T17:51:08.369Z,4.43
2023-01-27T17:53:36.828Z,4.46
2023-01-27T17:56:14.533Z,4.36
2023-01-27T17:58:44.657Z,4.41
2023-01-27T18:01:12.770Z,4.41
2023-01-27T18:03:40.897Z,4.33
2023-01-27T18:06:11.279Z,4.36
2023-01-27T18:08:40.054Z,4.41
2023-01-27T18:11:19.972Z,4.39
2023-01-27T18:13:47.690Z,4.44
2023-01-27T18:16:16.330Z,4.44
2023-01-27T18:18:44.327Z,4.35
2023-01-27T18:21:17.109Z,4.31
2023-01-27T18:23:46.476Z,4.45
2023-01-27T18:26:21.985Z,4.27
2023-01-27T18:28:51.898Z,4.30
2023-01-27T18:31:21.825Z,4.46
2023-01-27T18:33:57.176Z,4.35
2023-01-27T18:36:26.853Z,4.27
2023-01-27T18:38:54.444Z,4.30
2023-01-27T18:41:28.909Z,4.19
2023-01-27T18:43:56.743Z,4.28
2023-01-27T18:46:26.384Z,4.22
2023-01-27T18:48:55.458Z,4.12
2023-01-27T18:51:22.960Z,4.14
2023-01-27T18:53:50.878Z,4.06
2023-01-27T18:56:18.525Z,4.05
2023-01-27T18:58:47.361Z,4.24
2023-01-27T19:01:19.607Z,4.11
2023-01-27T19:03:47.277Z,4.25
2023-01-27T19:06:16.282Z,4.18
2023-01-27T19:08:44.210Z,4.29
2023-01-27T19:11:15.761Z,4.09
2023-01-27T19:13:43.638Z,4.08
2023-01-27T19:16:15.084Z,4.06
2023-01-27T19:18:43.300Z,4.00
2023-01-27T19:21:13.781Z,4.07
2023-01-27T19:23:44.262Z,4.02
2023-01-27T19:26:16.839Z,3.93
2023-01-27T19:28:44.920Z,4.00
2023-01-27T19:31:14.074Z,3.92
2023-01-27T19:33:43.991Z,3.97
2023-01-27T19:36:24.056Z,3.97
2023-01-27T19:38:54.322Z,3.80
2023-01-27T19:41:21.832Z,3.86
2023-01-27T19:43:49.942Z,3.74
2023-01-27T19:46:21.941Z,3.75
2023-01-27T19:48:50.102Z,3.72
2023-01-27T19:51:18.921Z,3.69
2023-01-27T19:53:46.996Z,3.70
2023-01-27T19:56:17.257Z,3.68
2023-01-27T19:58:47.054Z,3.63
2023-01-27T20:01:14.618Z,3.60
2023-01-27T20:03:43.693Z,3.60
2023-01-27T20:06:16.645Z,3.54
2023-01-27T20:08:44.630Z,3.46
2023-01-27T20:11:30.279Z,3.52
2023-01-27T20:13:57.913Z,3.54
2023-01-27T20:16:25.912Z,3.54
2023-01-27T20:18:55.081Z,3.44
2023-01-27T20:21:22.559Z,3.38
2023-01-27T20:23:50.084Z,3.42
2023-01-27T20:26:18.140Z,3.47
2023-01-27T20:28:46.315Z,3.41
2023-01-27T20:31:14.221Z,3.39
2023-01-27T20:33:41.911Z,3.27
2023-01-27T20:36:17.559Z,3.37
2023-01-27T20:38:45.309Z,3.11
2023-01-27T20:41:15.757Z,3.29
2023-01-27T20:43:43.486Z,3.36
2023-01-27T20:46:13.293Z,3.21
2023-01-27T20:48:41.079Z,3.26
2023-01-27T20:51:12.464Z,3.20
2023-01-27T20:53:45.139Z,3.30
2023-01-27T20:56:14.451Z,3.22
2023-01-27T20:58:42.337Z,3.17
2023-01-27T21:01:12.199Z,3.22
2023-01-27T21:03:41.305Z,3.13
2023-01-27T21:06:11.689Z,3.09
2023-01-27T21:08:39.371Z,3.10
2023-01-27T21:11:10.860Z,3.03
2023-01-27T21:13:38.463Z,3.06
2023-01-27T21:16:06.890Z,3.05
2023-01-27T21:18:34.472Z,3.12
2023-01-27T21:21:04.185Z,3.03
2023-01-27T21:23:34.762Z,3.00
2023-01-27T21:26:06.017Z,3.01
2023-01-27T21:28:34.469Z,2.93
2023-01-27T21:31:06.559Z,2.93
2023-01-27T21:33:35.791Z,2.99
2023-01-27T21:36:03.659Z,2.95
2023-01-27T21:38:33.759Z,3.03
2023-01-27T21:41:05.386Z,2.99
2023-01-27T21:43:50.565Z,2.92
2023-01-27T21:46:18.731Z,2.89
2023-01-27T21:48:46.335Z,2.89
2023-01-27T21:51:14.129Z,3.06
2023-01-27T21:53:43.059Z,2.97
2023-01-27T21:56:11.867Z,2.97
2023-01-27T21:58:39.427Z,2.95
2023-01-27T22:01:07.495Z,2.97
2023-01-27T22:03:35.265Z,3.12
2023-01-27T22:06:07.249Z,3.03
2023-01-27T22:08:35.518Z,3.03
2023-01-27T22:11:05.342Z,3.02
2023-01-27T22:13:33.361Z,2.93
2023-01-27T22:16:01.282Z,3.02
2023-01-27T22:18:29.157Z,3.05
2023-01-27T22:20:57.024Z,3.07
2023-01-27T22:23:24.641Z,3.11
2023-01-27T22:25:53.154Z,3.22
2023-01-27T22:28:23.151Z,3.04
2023-01-27T22:30:51.083Z,2.89
2023-01-27T22:33:18.730Z,2.95
2023-01-27T22:35:46.349Z,3.08
2023-01-27T22:38:14.077Z,3.01
2023-01-27T22:40:41.632Z,3.00
2023-01-27T22:43:10.551Z,3.10
2023-01-27T22:45:40.153Z,2.98
2023-01-27T22:48:08.568Z,3.03
2023-01-27T22:50:36.124Z,2.95
2023-01-27T22:53:05.200Z,3.01
2023-01-27T22:55:33.071Z,3.07
2023-01-27T22:58:00.759Z,2.93
2023-01-27T23:00:28.434Z,2.89
2023-01-27T23:02:57.304Z,2.89
2023-01-27T23:05:24.799Z,2.87
2023-01-27T23:07:52.312Z,2.98
2023-01-27T23:10:20.263Z,2.84
2023-01-27T23:12:47.776Z,2.77
2023-01-27T23:15:16.199Z,2.75
2023-01-27T23:17:43.951Z,2.83
2023-01-27T23:20:13.693Z,2.99
2023-01-27T23:22:41.256Z,3.08
2023-01-27T23:25:10.004Z,2.93
2023-01-27T23:27:37.711Z,3.01
2023-01-27T23:30:08.917Z,2.89
2023-01-27T23:32:36.817Z,2.95
2023-01-27T23:35:04.662Z,2.93
2023-01-27T23:37:33.543Z,3.04
2023-01-27T23:40:01.451Z,2.94
2023-01-27T23:42:29.007Z,2.95
2023-01-27T23:44:56.482Z,2.79
2023-01-27T23:47:23.970Z,2.80
2023-01-27T23:49:51.890Z,2.71
2023-01-27T23:52:19.345Z,2.65
2023-01-27T23:54:48.334Z,2.71
2023-01-27T23:57:15.949Z,2.89
2023-01-27T23:59:43.579Z,2.68
